createdAt,value
2022-08-27T00:02:58.615Z,28.15
2022-08-27T00:06:03.875Z,27.27
2022-08-27T00:09:07.550Z,29.65
2022-08-27T00:12:12.427Z,24.35
2022-08-27T00:15:17.922Z,28.48
2022-08-27T00:18:22.795Z,27.88
2022-08-27T00:21:27.796Z,18.15
2022-08-27T00:24:31.083Z,25.50
2022-08-27T00:27:34.441Z,25.80
2022-08-27T00:30:39.819Z,24.25
2022-08-27T00:33:43.554Z,27.13
2022-08-27T00:36:48.276Z,24.70
2022-08-27T00:39:51.606Z,25.70
2022-08-27T00:42:55.196Z,26.05
2022-08-27T00:46:05.973Z,28.05
2022-08-27T00:49:14.168Z,21.20
2022-08-27T00:52:25.111Z,21.73
2022-08-27T00:55:31.963Z,30.65
2022-08-27T00:58:41.890Z,27.88
2022-08-27T01:02:01.173Z,24.77
2022-08-27T01:05:09.098Z,25.40
2022-08-27T01:08:17.404Z,27.77
2022-08-27T01:11:21.580Z,20.75
2022-08-27T01:14:25.731Z,28.17
2022-08-27T01:17:29.255Z,26.08
2022-08-27T01:20:43.861Z,27.75
2022-08-27T01:23:55.630Z,25.85
2022-08-27T01:27:02.179Z,25.75
2022-08-27T01:30:08.965Z,22.02
2022-08-27T01:33:16.066Z,26.83
2022-08-27T01:36:36.941Z,28.25
2022-08-27T01:39:42.108Z,27.77
2022-08-27T01:42:47.859Z,25.50
2022-08-27T01:45:52.921Z,31.27
2022-08-27T01:48:56.926Z,30.17
2022-08-27T01:52:01.537Z,24.17
2022-08-27T01:55:06.685Z,29.27
2022-08-27T01:58:10.001Z,33.80
2022-08-27T02:01:18.515Z,27.17
2022-08-27T02:04:22.078Z,27.42
2022-08-27T02:07:27.777Z,28.40
2022-08-27T02:10:33.229Z,29.05
2022-08-27T02:13:36.813Z,30.08
2022-08-27T02:16:52.204Z,27.88
2022-08-27T02:19:56.841Z,26.42
2022-08-27T02:23:01.701Z,29.45
2022-08-27T02:26:05.015Z,26.65
2022-08-27T02:29:09.590Z,16.52
2022-08-27T02:32:17.722Z,19.45
2022-08-27T02:35:38.938Z,18.50
2022-08-27T02:38:45.953Z,11.30
2022-08-27T02:41:49.526Z,18.80
2022-08-27T02:44:54.936Z,20.90
2022-08-27T02:47:58.221Z,21.30
2022-08-27T02:51:01.368Z,26.73
2022-08-27T02:54:06.337Z,27.10
2022-08-27T02:57:13.125Z,25.02
2022-08-27T03:00:19.457Z,23.15
2022-08-27T03:03:22.598Z,26.13
2022-08-27T03:06:25.819Z,25.70
2022-08-27T03:09:30.309Z,35.83
2022-08-27T03:12:34.261Z,38.00
2022-08-27T03:15:37.434Z,28.50
2022-08-27T03:18:41.623Z,36.58
2022-08-27T03:21:45.297Z,27.38
2022-08-27T03:24:59.507Z,26.88
2022-08-27T03:28:03.052Z,24.52
2022-08-27T03:34:26.935Z,31.15
2022-08-27T03:37:30.128Z,40.38
2022-08-27T03:40:33.426Z,34.70
2022-08-27T03:43:37.078Z,30.08
2022-08-27T03:46:40.423Z,29.75
2022-08-27T03:49:45.691Z,29.83
2022-08-27T03:52:49.801Z,31.90
2022-08-27T03:55:53.113Z,28.90
2022-08-27T03:58:56.629Z,29.73
2022-08-27T04:02:00.423Z,30.00
2022-08-27T04:05:05.789Z,26.02
2022-08-27T04:08:09.378Z,23.48
2022-08-27T04:11:12.699Z,28.63
2022-08-27T04:14:24.657Z,34.83
2022-08-27T04:17:30.545Z,30.33
2022-08-27T04:20:36.134Z,30.58
2022-08-27T04:23:40.139Z,18.98
2022-08-27T04:26:45.709Z,23.92
2022-08-27T04:29:49.649Z,17.77
2022-08-27T04:32:54.542Z,19.52
2022-08-27T04:36:03.693Z,21.05
2022-08-27T04:39:07.103Z,25.30
2022-08-27T04:42:10.465Z,22.40
2022-08-27T04:45:13.785Z,20.30
2022-08-27T04:48:19.947Z,25.15
2022-08-27T04:51:25.010Z,26.15
2022-08-27T04:54:32.987Z,27.25
2022-08-27T04:57:37.995Z,24.73
2022-08-27T05:00:45.192Z,27.67
2022-08-27T05:03:49.213Z,33.42
2022-08-27T05:06:54.503Z,29.92
2022-08-27T05:09:58.077Z,24.08
2022-08-27T05:13:01.280Z,28.67
2022-08-27T05:16:07.222Z,32.17
2022-08-27T05:19:14.549Z,21.80
2022-08-27T05:22:19.329Z,26.05
2022-08-27T05:25:22.652Z,34.38
2022-08-27T05:28:27.813Z,31.35
2022-08-27T05:31:31.470Z,28.13
2022-08-27T05:34:34.997Z,31.25
2022-08-27T05:37:40.455Z,29.88
2022-08-27T05:40:45.057Z,29.55
2022-08-27T05:43:50.446Z,30.15
2022-08-27T05:46:56.049Z,30.65
2022-08-27T05:49:59.306Z,27.38
2022-08-27T05:53:03.891Z,26.75
2022-08-27T05:56:13.709Z,34.10
2022-08-27T05:59:35.077Z,30.30
2022-08-27T06:02:39.292Z,29.05
2022-08-27T06:05:42.638Z,26.90
2022-08-27T06:08:47.750Z,12.65
2022-08-27T06:11:51.222Z,26.98
2022-08-27T06:14:54.593Z,16.80
2022-08-27T06:17:58.385Z,28.77
2022-08-27T06:21:01.899Z,20.20
2022-08-27T06:24:07.259Z,20.02
2022-08-27T06:27:13.182Z,22.65
2022-08-27T06:30:17.677Z,24.70
2022-08-27T06:33:21.273Z,19.23
2022-08-27T06:36:26.186Z,22.90
2022-08-27T06:39:31.903Z,29.58
2022-08-27T06:42:35.456Z,28.52
2022-08-27T06:45:40.987Z,26.38
2022-08-27T06:48:47.002Z,28.42
2022-08-27T06:51:50.150Z,28.63
2022-08-27T06:54:54.939Z,26.25
2022-08-27T06:57:58.158Z,30.08
2022-08-27T07:01:01.510Z,30.42
2022-08-27T07:04:07.367Z,28.77
2022-08-27T07:07:13.639Z,28.30
2022-08-27T07:10:20.467Z,27.90
2022-08-27T07:13:24.500Z,26.65
2022-08-27T07:16:29.443Z,27.98
2022-08-27T07:19:34.210Z,28.70
2022-08-27T07:22:44.569Z,29.13
2022-08-27T07:25:50.156Z,28.85
2022-08-27T07:28:55.852Z,27.58
2022-08-27T07:31:59.020Z,25.58
2022-08-27T07:35:03.079Z,26.30
2022-08-27T07:38:06.910Z,20.15
2022-08-27T07:41:14.132Z,30.88
2022-08-27T07:44:26.268Z,34.08
2022-08-27T07:47:32.559Z,34.72
2022-08-27T07:50:36.147Z,32.85
2022-08-27T07:53:39.336Z,27.85
2022-08-27T07:56:55.471Z,31.85
2022-08-27T07:59:59.468Z,36.28
2022-08-27T08:03:03.435Z,35.17
2022-08-27T08:06:09.437Z,29.75
2022-08-27T08:09:12.605Z,22.40
2022-08-27T08:12:17.374Z,25.35
2022-08-27T08:15:29.498Z,39.00
2022-08-27T08:18:32.659Z,28.75
2022-08-27T08:21:36.744Z,36.42
2022-08-27T08:24:40.049Z,26.30
2022-08-27T08:27:45.874Z,26.27
2022-08-27T08:30:54.873Z,23.15
2022-08-27T08:33:58.638Z,32.97
2022-08-27T08:37:01.803Z,32.13
2022-08-27T08:40:07.849Z,34.42
2022-08-27T08:43:25.263Z,31.70
2022-08-27T08:46:34.463Z,36.33
2022-08-27T08:49:49.457Z,37.50
2022-08-27T08:53:00.107Z,36.58
2022-08-27T08:56:09.030Z,32.90
2022-08-27T08:59:27.190Z,28.88
2022-08-27T09:02:30.336Z,23.65
2022-08-27T09:05:33.864Z,30.95
2022-08-27T09:08:41.859Z,25.17
2022-08-27T09:11:51.084Z,25.25
2022-08-27T09:15:01.250Z,21.67
2022-08-27T09:18:07.026Z,27.65
2022-08-27T09:21:27.920Z,24.42
2022-08-27T09:24:44.129Z,24.63
2022-08-27T09:27:49.116Z,24.38
2022-08-27T09:34:29.014Z,16.02
2022-08-27T09:37:35.030Z,15.27
2022-08-27T09:40:42.767Z,13.88
2022-08-27T09:46:54.938Z,18.77
2022-08-27T09:50:06.971Z,16.13
2022-08-27T09:53:19.829Z,16.65
2022-08-27T09:56:28.626Z,16.63
2022-08-27T09:59:36.510Z,15.75
2022-08-27T10:02:50.570Z,17.63
2022-08-27T10:05:55.361Z,20.65
2022-08-27T10:09:07.103Z,16.55
2022-08-27T10:12:18.323Z,19.75
2022-08-27T10:15:22.133Z,16.77
2022-08-27T10:18:34.952Z,18.23
2022-08-27T10:21:51.976Z,25.90
2022-08-27T10:25:10.804Z,17.38
2022-08-27T10:28:27.051Z,15.27
2022-08-27T10:31:39.973Z,23.25
2022-08-27T10:34:57.162Z,17.50
2022-08-27T10:38:11.582Z,16.07
2022-08-27T10:41:19.058Z,16.88
2022-08-27T10:44:43.198Z,14.30
2022-08-27T10:48:05.723Z,17.50
2022-08-27T10:51:15.506Z,16.15
2022-08-27T10:54:30.190Z,17.75
2022-08-27T10:57:59.050Z,15.68
2022-08-27T11:01:17.873Z,16.85
2022-08-27T11:04:24.394Z,13.13
2022-08-27T11:07:33.965Z,12.48
2022-08-27T11:10:43.204Z,12.95
2022-08-27T11:13:51.557Z,12.27
2022-08-27T11:17:02.926Z,9.30
2022-08-27T11:20:12.483Z,9.52
2022-08-27T11:23:20.393Z,11.13
2022-08-27T11:26:25.082Z,3.70
2022-08-27T11:29:34.955Z,7.18
2022-08-27T11:32:51.529Z,5.05
2022-08-27T11:36:11.213Z,5.18
2022-08-27T11:39:28.948Z,5.43
2022-08-27T11:42:42.077Z,3.55
2022-08-27T11:45:56.868Z,8.35
2022-08-27T11:49:03.241Z,5.90
2022-08-27T11:52:08.730Z,3.90
2022-08-27T11:55:25.645Z,7.05
2022-08-27T11:58:33.821Z,5.55
2022-08-27T12:01:59.674Z,5.03
2022-08-27T12:05:12.000Z,3.72
2022-08-27T12:08:21.184Z,5.60
2022-08-27T12:11:37.690Z,4.18
2022-08-27T12:14:48.923Z,3.67
2022-08-27T12:18:05.078Z,3.03
2022-08-27T12:21:18.853Z,6.30
2022-08-27T12:24:41.812Z,6.90
2022-08-27T12:27:57.910Z,5.40
2022-08-27T12:31:06.551Z,7.25
2022-08-27T12:34:15.998Z,6.25
2022-08-27T12:37:28.243Z,6.43
2022-08-27T12:40:40.656Z,6.85
2022-08-27T12:43:44.106Z,6.40
2022-08-27T12:46:51.371Z,5.78
2022-08-27T12:49:58.107Z,5.35
2022-08-27T12:53:24.802Z,6.57
2022-08-27T12:56:42.780Z,7.22
2022-08-27T13:03:22.315Z,5.68
2022-08-27T13:06:29.799Z,11.05
2022-08-27T13:09:35.109Z,6.68
2022-08-27T13:12:38.404Z,6.90
2022-08-27T13:15:44.842Z,6.43
2022-08-27T13:18:51.307Z,6.63
2022-08-27T13:21:55.365Z,7.18
2022-08-27T13:25:00.533Z,6.25
2022-08-27T13:28:10.333Z,7.95
2022-08-27T13:31:15.267Z,7.68
2022-08-27T13:34:22.488Z,7.28
2022-08-27T13:37:29.918Z,6.47
2022-08-27T13:40:36.830Z,5.60
2022-08-27T13:43:43.331Z,5.70
2022-08-27T13:46:49.943Z,4.40
2022-08-27T13:50:04.634Z,5.00
2022-08-27T13:53:28.787Z,5.30
2022-08-27T13:56:33.807Z,5.13
2022-08-27T13:59:42.870Z,5.25
2022-08-27T14:02:55.960Z,5.85
2022-08-27T14:06:01.840Z,7.60
2022-08-27T14:09:17.817Z,5.55
2022-08-27T14:12:33.114Z,5.45
2022-08-27T14:15:39.324Z,5.97
2022-08-27T14:18:59.223Z,6.38
2022-08-27T14:22:08.569Z,6.63
2022-08-27T14:25:12.175Z,5.18
2022-08-27T14:28:15.327Z,5.30
2022-08-27T14:31:18.666Z,6.40
2022-08-27T14:34:22.455Z,4.85
2022-08-27T14:37:27.293Z,4.72
2022-08-27T14:40:31.359Z,7.53
2022-08-27T14:43:36.530Z,8.13
2022-08-27T14:46:42.973Z,5.55
2022-08-27T14:49:48.331Z,5.75
2022-08-27T14:52:52.985Z,5.40
2022-08-27T14:55:58.881Z,4.57
2022-08-27T14:59:02.469Z,5.60
2022-08-27T15:02:09.789Z,4.32
2022-08-27T15:05:13.352Z,5.50
2022-08-27T15:08:17.943Z,6.13
2022-08-27T15:11:24.510Z,7.25
2022-08-27T15:14:31.455Z,7.05
2022-08-27T15:17:35.703Z,7.45
2022-08-27T15:20:40.324Z,7.57
2022-08-27T15:23:45.684Z,5.78
2022-08-27T15:26:49.235Z,7.88
2022-08-27T15:29:54.827Z,4.07
2022-08-27T15:34:26.547Z,3.90
2022-08-27T15:37:30.552Z,4.25
2022-08-27T15:40:36.310Z,3.88
2022-08-27T15:43:40.234Z,4.32
2022-08-27T15:46:43.874Z,3.15
2022-08-27T15:49:49.026Z,4.72
2022-08-27T15:52:57.791Z,3.50
2022-08-27T15:56:03.123Z,4.85
2022-08-27T15:59:07.256Z,4.65
2022-08-27T16:02:15.616Z,6.18
2022-08-27T16:05:24.680Z,7.18
2022-08-27T16:08:30.504Z,6.07
2022-08-27T16:11:37.315Z,6.55
2022-08-27T16:14:40.498Z,9.95
2022-08-27T16:17:44.913Z,9.80
2022-08-27T16:20:49.457Z,5.97
2022-08-27T16:23:52.666Z,7.28
2022-08-27T16:26:56.107Z,7.38
2022-08-27T16:29:59.249Z,8.70
2022-08-27T16:33:02.446Z,7.55
2022-08-27T16:36:07.893Z,9.30
2022-08-27T16:39:11.120Z,9.35
2022-08-27T16:42:14.369Z,8.32
2022-08-27T16:45:19.913Z,10.40
2022-08-27T16:48:41.443Z,10.38
2022-08-27T16:51:46.350Z,8.70
2022-08-27T16:54:50.169Z,8.20
2022-08-27T16:57:53.693Z,6.88
2022-08-27T17:00:58.729Z,9.75
2022-08-27T17:04:10.230Z,15.43
2022-08-27T17:07:17.549Z,14.52
2022-08-27T17:10:21.085Z,13.35
2022-08-27T17:13:28.258Z,12.73
2022-08-27T17:19:37.011Z,10.05
2022-08-27T17:22:41.607Z,11.25
2022-08-27T17:25:44.868Z,9.77
2022-08-27T17:28:48.431Z,13.45
2022-08-27T17:31:52.178Z,10.75
2022-08-27T17:34:55.580Z,9.70
2022-08-27T17:38:00.385Z,10.85
2022-08-27T17:41:09.726Z,12.48
2022-08-27T17:44:21.265Z,15.55
2022-08-27T17:47:25.374Z,17.75
2022-08-27T17:50:28.958Z,19.92
2022-08-27T17:53:34.259Z,14.07
2022-08-27T17:56:40.070Z,15.13
2022-08-27T17:59:43.541Z,14.73
2022-08-27T18:02:49.069Z,17.60
2022-08-27T18:05:52.307Z,15.57
2022-08-27T18:08:57.061Z,14.68
2022-08-27T18:12:00.494Z,15.40
2022-08-27T18:15:08.939Z,13.00
2022-08-27T18:18:13.354Z,17.58
2022-08-27T18:21:25.370Z,17.60
2022-08-27T18:24:30.905Z,12.85
2022-08-27T18:27:35.875Z,15.88
2022-08-27T18:30:43.847Z,15.23
2022-08-27T18:33:47.450Z,14.05
2022-08-27T18:36:52.167Z,18.05
2022-08-27T18:39:57.073Z,19.08
2022-08-27T18:43:00.298Z,18.38
2022-08-27T18:46:04.797Z,20.27
2022-08-27T18:49:08.218Z,19.83
2022-08-27T18:52:13.445Z,23.63
2022-08-27T18:55:20.792Z,20.50
2022-08-27T19:01:29.041Z,22.98
2022-08-27T19:04:34.381Z,20.67
2022-08-27T19:07:38.005Z,21.23
2022-08-27T19:10:42.542Z,26.98
2022-08-27T19:13:50.538Z,24.83
2022-08-27T19:16:57.080Z,24.52
2022-08-27T19:20:01.975Z,25.42
2022-08-27T19:23:05.204Z,25.30
2022-08-27T19:26:16.569Z,26.92
2022-08-27T19:29:20.176Z,24.55
2022-08-27T19:32:23.745Z,30.60
2022-08-27T19:35:27.095Z,26.70
2022-08-27T19:38:32.516Z,29.50
2022-08-27T19:41:37.328Z,27.88
2022-08-27T19:44:40.459Z,24.27
2022-08-27T19:47:43.757Z,26.83
2022-08-27T19:50:47.009Z,30.20
2022-08-27T19:53:53.980Z,33.60
2022-08-27T19:56:58.579Z,31.13
2022-08-27T20:00:01.876Z,25.98
2022-08-27T20:03:13.023Z,31.30
2022-08-27T20:06:18.562Z,36.10
2022-08-27T20:09:22.352Z,32.45
2022-08-27T20:12:26.964Z,29.50
2022-08-27T20:15:30.687Z,34.38
2022-08-27T20:18:35.088Z,34.05
2022-08-27T20:21:39.554Z,32.00
2022-08-27T20:24:43.098Z,32.20
2022-08-27T20:27:48.055Z,34.65
2022-08-27T20:30:51.272Z,43.45
2022-08-27T20:33:54.529Z,34.85
2022-08-27T20:36:58.859Z,26.88
2022-08-27T20:40:02.392Z,38.33
2022-08-27T20:43:07.060Z,35.20
2022-08-27T20:46:11.101Z,35.63
2022-08-27T20:49:14.538Z,31.45
2022-08-27T20:52:19.179Z,26.65
2022-08-27T20:55:23.884Z,29.55
2022-08-27T20:58:46.012Z,39.40
2022-08-27T21:01:49.251Z,33.00
2022-08-27T21:04:52.667Z,38.53
2022-08-27T21:07:55.868Z,41.17
2022-08-27T21:11:00.498Z,39.78
2022-08-27T21:14:05.285Z,36.10
2022-08-27T21:17:09.535Z,35.92
2022-08-27T21:20:15.422Z,38.30
2022-08-27T21:23:19.868Z,40.40
2022-08-27T21:26:23.626Z,35.38
2022-08-27T21:29:28.447Z,29.80
2022-08-27T21:34:30.914Z,23.80
2022-08-27T21:37:34.316Z,30.95
2022-08-27T21:40:37.779Z,36.10
2022-08-27T21:43:41.256Z,31.40
2022-08-27T21:46:44.710Z,25.30
2022-08-27T21:49:49.714Z,30.65
2022-08-27T21:52:53.555Z,35.42
2022-08-27T21:55:56.896Z,23.65
2022-08-27T21:59:00.432Z,37.50
2022-08-27T22:02:18.069Z,31.00
2022-08-27T22:05:28.610Z,34.15
2022-08-27T22:08:32.025Z,24.40
2022-08-27T22:11:35.954Z,31.92
2022-08-27T22:14:40.830Z,35.38
2022-08-27T22:17:46.250Z,38.35
2022-08-27T22:20:54.271Z,34.85
2022-08-27T22:23:57.424Z,32.40
2022-08-27T22:27:00.596Z,25.73
2022-08-27T22:30:07.379Z,35.72
2022-08-27T22:33:14.874Z,33.13
2022-08-27T22:36:19.451Z,33.20
2022-08-27T22:39:23.130Z,34.15
2022-08-27T22:42:28.154Z,30.77
2022-08-27T22:45:31.370Z,29.40
2022-08-27T22:48:34.711Z,22.17
2022-08-27T22:51:39.712Z,35.10
2022-08-27T22:54:43.007Z,39.55
2022-08-27T22:57:46.926Z,49.03
2022-08-27T23:00:52.609Z,30.65
2022-08-27T23:03:56.518Z,32.78
2022-08-27T23:07:01.895Z,44.08
2022-08-27T23:10:07.049Z,31.58
2022-08-27T23:13:11.136Z,33.72
2022-08-27T23:16:15.835Z,46.30
2022-08-27T23:19:19.366Z,31.23
2022-08-27T23:22:24.127Z,32.90
2022-08-27T23:25:45.760Z,28.52
2022-08-27T23:28:48.950Z,40.20
2022-08-27T23:31:53.060Z,33.90
2022-08-27T23:34:56.629Z,34.50
2022-08-27T23:38:01.250Z,27.50
2022-08-27T23:41:05.702Z,37.40
2022-08-27T23:44:09.154Z,30.83
2022-08-27T23:47:12.416Z,29.98
2022-08-27T23:50:16.354Z,30.98
2022-08-27T23:53:21.043Z,22.63
2022-08-27T23:56:28.121Z,30.63
2022-08-27T23:59:33.428Z,29.52
